Time;durP1;ratioP1;P1;durP2;ratioP2;P2;SDS_P1;SDS_P2;PMS_P1;PMS_P2;Temp;Humidity;BMP_temperature;BMP_pressure;BME280_temperature;BME280_humidity;BME280_pressure;Samples;Min_cycle;Max_cycle;Signal;HPM_P1;HPM_P2
2021/12/21 00:00:52;;;;;;;13.57;6.50;;;1.10;99.90;;;;;;5033459;28;20413;-60
2021/12/21 00:03:17;;;;;;;7.50;6.60;;;1.00;99.90;;;;;;5033876;28;20776;-56
2021/12/21 00:05:43;;;;;;;10.63;6.70;;;1.10;99.90;;;;;;5034065;28;20232;-57
2021/12/21 00:08:11;;;;;;;11.17;6.93;;;1.00;99.90;;;;;;5033954;28;20234;-60
2021/12/21 00:10:38;;;;;;;14.93;6.57;;;1.00;99.90;;;;;;5033848;28;20542;-60
2021/12/21 00:13:20;;;;;;;11.00;6.90;;;1.00;99.90;;;;;;5033743;28;21047;-60
2021/12/21 00:19:10;;;;;;;12.33;6.10;;;1.00;99.90;;;;;;5033773;28;20444;-59
2021/12/21 00:23:44;;;;;;;8.63;6.47;;;1.00;99.90;;;;;;5033921;28;20437;-60
2021/12/21 00:26:12;;;;;;;11.00;7.33;;;1.00;99.90;;;;;;5033490;28;20391;-59
2021/12/21 00:31:09;;;;;;;9.73;6.80;;;0.90;99.90;;;;;;5033622;28;20411;-60
2021/12/21 00:33:34;;;;;;;7.47;5.43;;;0.90;99.90;;;;;;5033433;28;20497;-60
2021/12/21 00:36:00;;;;;;;10.33;7.10;;;0.90;99.90;;;;;;5033541;28;20202;-60
2021/12/21 00:38:26;;;;;;;7.20;6.07;;;0.90;99.90;;;;;;5033436;28;20975;-60
2021/12/21 00:40:51;;;;;;;8.93;6.40;;;0.90;99.90;;;;;;5033254;28;20609;-60
2021/12/21 00:43:17;;;;;;;8.50;5.33;;;0.80;99.90;;;;;;5033652;28;20202;-61
2021/12/21 00:45:43;;;;;;;9.10;5.40;;;0.90;99.90;;;;;;5033526;28;20174;-60
2021/12/21 00:48:08;;;;;;;9.00;5.70;;;0.80;99.90;;;;;;5033211;28;20184;-60
2021/12/21 00:50:34;;;;;;;10.10;6.50;;;0.80;99.90;;;;;;5033261;28;20174;-60
2021/12/21 00:53:00;;;;;;;9.37;6.53;;;0.80;99.90;;;;;;5033047;28;20191;-60
2021/12/21 00:55:25;;;;;;;9.37;5.57;;;0.80;99.90;;;;;;5033458;28;20269;-60
2021/12/21 00:57:51;;;;;;;7.43;6.03;;;0.70;99.90;;;;;;5033274;28;20667;-59
2021/12/21 01:00:21;;;;;;;11.33;5.70;;;0.70;99.90;;;;;;5032917;28;20174;-59
2021/12/21 01:02:47;;;;;;;9.27;6.43;;;0.70;99.90;;;;;;5033265;28;20194;-58
2021/12/21 01:05:44;;;;;;;7.63;5.50;;;0.70;99.90;;;;;;5033400;28;20482;-59
2021/12/21 01:08:15;;;;;;;14.10;6.63;;;0.70;99.90;;;;;;5033440;28;20533;-60
2021/12/21 01:10:55;;;;;;;10.70;5.83;;;0.60;99.90;;;;;;5033508;28;20449;-60
2021/12/21 01:13:35;;;;;;;9.73;5.73;;;0.60;99.90;;;;;;5032797;28;20468;-60
2021/12/21 01:16:14;;;;;;;9.97;5.27;;;0.70;99.90;;;;;;5033467;28;20428;-58
2021/12/21 01:21:50;;;;;;;10.43;6.13;;;0.70;99.90;;;;;;4991467;28;20410;-59
2021/12/21 01:27:04;;;;;;;8.87;5.80;;;0.60;99.90;;;;;;5033032;28;20482;-59
2021/12/21 01:34:37;;;;;;;12.00;6.20;;;0.50;99.90;;;;;;5033047;28;20470;-59
2021/12/21 01:39:53;;;;;;;8.40;5.40;;;0.50;99.90;;;;;;5036654;28;20947;-58
2021/12/21 01:42:29;;;;;;;11.80;6.17;;;0.50;99.90;;;;;;5036696;28;20408;-60
2021/12/21 01:50:14;;;;;;;10.87;6.77;;;0.50;99.90;;;;;;5037064;28;20390;-60
2021/12/21 01:52:40;;;;;;;8.60;5.77;;;0.50;99.90;;;;;;5037092;28;20808;-60
2021/12/21 01:55:06;;;;;;;8.23;5.60;;;0.50;99.90;;;;;;5037151;28;20592;-58
2021/12/21 01:57:32;;;;;;;7.97;5.23;;;0.40;99.90;;;;;;5036736;28;20173;-58
2021/12/21 01:59:58;;;;;;;9.37;6.20;;;0.30;99.90;;;;;;5036065;28;20563;-60
2021/12/21 02:02:24;;;;;;;9.87;6.20;;;0.40;99.90;;;;;;5036248;28;20288;-59
2021/12/21 02:04:50;;;;;;;10.03;6.80;;;0.30;99.90;;;;;;5036513;28;20261;-60
2021/12/21 02:07:17;;;;;;;11.53;6.20;;;0.40;99.90;;;;;;5036320;28;20403;-60
2021/12/21 02:09:42;;;;;;;8.10;5.53;;;0.40;99.90;;;;;;5035665;28;20415;-60
2021/12/21 02:12:14;;;;;;;7.60;6.53;;;0.30;99.90;;;;;;5036076;28;20423;-60
2021/12/21 02:14:41;;;;;;;12.20;5.87;;;0.30;99.90;;;;;;5035551;28;20595;-60
2021/12/21 02:20:06;;;;;;;19.17;6.60;;;0.40;99.90;;;;;;5029756;28;20530;-60
2021/12/21 02:22:36;;;;;;;9.47;5.93;;;0.30;99.90;;;;;;5032128;28;20446;-59
2021/12/21 02:25:19;;;;;;;7.03;5.27;;;0.30;99.90;;;;;;5035549;28;20922;-60
2021/12/21 02:27:57;;;;;;;14.10;6.20;;;0.30;99.90;;;;;;5035797;28;20428;-60
2021/12/21 02:30:23;;;;;;;10.37;6.70;;;0.30;99.90;;;;;;5035579;28;20814;-60
2021/12/21 02:32:50;;;;;;;7.70;5.60;;;0.20;99.90;;;;;;5035413;28;20441;-60
2021/12/21 02:35:15;;;;;;;9.87;7.20;;;0.10;99.90;;;;;;5036482;28;20505;-60
2021/12/21 02:37:41;;;;;;;9.83;5.90;;;0.10;99.90;;;;;;5035368;28;20435;-58
2021/12/21 02:40:07;;;;;;;10.57;6.00;;;0.20;99.90;;;;;;5035361;28;20173;-60
2021/12/21 02:42:33;;;;;;;11.00;6.97;;;0.30;99.90;;;;;;5035145;28;20169;-58
2021/12/21 02:44:59;;;;;;;8.07;5.83;;;0.30;99.90;;;;;;5035283;28;20472;-59
2021/12/21 02:47:24;;;;;;;10.13;5.57;;;0.30;99.90;;;;;;5032988;28;20212;-60
2021/12/21 02:49:50;;;;;;;9.97;6.67;;;0.30;99.90;;;;;;5026156;28;20187;-60
2021/12/21 02:52:16;;;;;;;8.60;6.13;;;0.30;99.90;;;;;;5015359;28;20167;-60
2021/12/21 02:54:41;;;;;;;10.93;5.23;;;0.30;99.90;;;;;;5015211;28;20690;-59
2021/12/21 02:57:07;;;;;;;7.37;5.63;;;0.20;99.90;;;;;;5015538;28;20244;-60
2021/12/21 02:59:33;;;;;;;7.47;5.30;;;0.20;99.90;;;;;;5031328;28;20205;-61
2021/12/21 03:01:59;;;;;;;10.33;5.70;;;0.20;99.90;;;;;;5035079;28;20265;-61
2021/12/21 03:04:25;;;;;;;9.77;5.60;;;0.30;99.90;;;;;;5034927;28;20554;-59
2021/12/21 03:11:50;;;;;;;10.23;5.47;;;0.20;99.90;;;;;;5034662;28;20403;-61
2021/12/21 03:14:16;;;;;;;8.47;4.60;;;0.20;99.90;;;;;;5034080;28;20445;-59
2021/12/21 03:16:42;;;;;;;9.87;5.40;;;0.20;99.90;;;;;;5034501;28;20929;-60
2021/12/21 03:19:10;;;;;;;7.47;5.50;;;0.20;99.90;;;;;;5034724;28;20476;-59
2021/12/21 03:21:37;;;;;;;6.53;5.50;;;0.20;99.90;;;;;;5034556;28;20163;-60
2021/12/21 03:24:05;;;;;;;7.83;5.83;;;0.10;99.90;;;;;;5034560;28;20441;-60
2021/12/21 03:26:30;;;;;;;7.97;5.37;;;0.10;99.90;;;;;;5034485;28;20407;-60
2021/12/21 03:28:57;;;;;;;8.50;5.80;;;0.10;99.90;;;;;;5034245;28;20417;-61
2021/12/21 03:31:23;;;;;;;6.20;5.60;;;0.10;99.90;;;;;;5034533;28;20519;-60
2021/12/21 03:33:49;;;;;;;9.73;4.50;;;0.10;99.90;;;;;;5034001;28;20432;-60
2021/12/21 03:36:16;;;;;;;12.70;6.53;;;0.20;99.90;;;;;;5034170;28;20815;-59
2021/12/21 03:38:49;;;;;;;12.43;5.90;;;0.10;99.90;;;;;;5034066;28;20449;-59
2021/12/21 03:41:16;;;;;;;7.90;5.57;;;0.10;99.90;;;;;;5034360;28;20410;-59
2021/12/21 03:43:42;;;;;;;7.70;5.50;;;0.10;99.90;;;;;;5033989;28;20473;-60
2021/12/21 03:46:10;;;;;;;8.00;4.90;;;0.10;99.90;;;;;;5033752;28;20407;-59
2021/12/21 03:48:40;;;;;;;5.40;4.83;;;0.00;99.90;;;;;;5033898;28;20176;-60
2021/12/21 03:51:06;;;;;;;8.40;5.03;;;0.00;99.90;;;;;;5034188;28;20400;-60
2021/12/21 03:53:32;;;;;;;6.10;4.80;;;-0.10;99.90;;;;;;5033833;28;20952;-58
2021/12/21 03:56:12;;;;;;;8.10;4.83;;;0.00;99.90;;;;;;5033907;28;20183;-60
2021/12/21 03:58:38;;;;;;;11.40;5.87;;;0.00;99.90;;;;;;5033534;28;20209;-59
2021/12/21 04:01:04;;;;;;;6.73;4.83;;;0.10;99.90;;;;;;5033801;28;20913;-60
2021/12/21 04:03:29;;;;;;;8.60;4.63;;;-0.10;99.90;;;;;;5033632;28;20239;-60
2021/12/21 04:05:55;;;;;;;11.57;5.40;;;0.00;99.90;;;;;;5033949;28;20169;-60
2021/12/21 04:08:21;;;;;;;10.77;5.43;;;0.00;99.90;;;;;;5033733;28;20210;-60
2021/12/21 04:10:46;;;;;;;5.40;4.40;;;0.00;99.90;;;;;;5033805;28;20171;-59
2021/12/21 04:13:12;;;;;;;7.53;4.17;;;0.10;99.90;;;;;;5055617;23;20336;-57
2021/12/21 04:15:42;;;;;;;8.93;4.53;;;0.00;99.90;;;;;;4993310;28;20257;-62
2021/12/21 04:18:13;;;;;;;8.10;4.40;;;0.00;99.90;;;;;;4993947;28;20537;-63
2021/12/21 04:20:40;;;;;;;7.60;4.90;;;0.00;99.90;;;;;;4994258;28;20398;-63
2021/12/21 04:23:06;;;;;;;8.47;4.70;;;-0.10;99.90;;;;;;4995378;28;20474;-63
2021/12/21 04:25:33;;;;;;;7.33;4.70;;;-0.10;99.90;;;;;;5013991;28;20420;-62
2021/12/21 04:27:58;;;;;;;6.27;5.07;;;-0.10;99.90;;;;;;5013668;28;20784;-63
2021/12/21 04:30:24;;;;;;;10.73;5.40;;;-0.10;99.90;;;;;;5013699;28;20418;-62
2021/12/21 04:32:50;;;;;;;10.77;5.70;;;0.00;99.90;;;;;;5012277;28;20174;-63
2021/12/21 04:35:19;;;;;;;8.17;4.60;;;-0.10;99.90;;;;;;5014024;28;20483;-63
2021/12/21 04:37:50;;;;;;;7.23;5.20;;;-0.10;99.90;;;;;;5013521;28;20265;-63
2021/12/21 04:40:19;;;;;;;8.17;6.27;;;-0.10;99.90;;;;;;5013602;28;20396;-62
2021/12/21 04:42:45;;;;;;;8.80;5.47;;;-0.20;99.90;;;;;;5014156;28;20908;-63
2021/12/21 04:45:10;;;;;;;11.47;5.33;;;-0.20;99.90;;;;;;5013208;28;20432;-62
2021/12/21 04:47:36;;;;;;;6.70;5.83;;;-0.20;99.90;;;;;;5013579;28;20177;-62
2021/12/21 04:50:02;;;;;;;8.50;5.83;;;-0.20;99.90;;;;;;5014005;28;20176;-62
2021/12/21 04:52:27;;;;;;;9.20;6.17;;;-0.20;99.90;;;;;;5013517;28;20696;-63
2021/12/21 04:54:54;;;;;;;8.40;6.10;;;-0.20;99.90;;;;;;5013674;28;20244;-63
2021/12/21 04:57:20;;;;;;;9.90;5.77;;;-0.20;99.90;;;;;;5013716;28;20165;-62
2021/12/21 04:59:46;;;;;;;10.37;4.83;;;-0.20;99.90;;;;;;5013242;28;20578;-63
2021/12/21 05:02:11;;;;;;;6.47;4.57;;;-0.20;99.90;;;;;;5013956;28;20173;-63
2021/12/21 05:04:38;;;;;;;13.83;5.43;;;-0.20;99.90;;;;;;5013651;28;20196;-63
2021/12/21 05:07:05;;;;;;;8.47;5.00;;;-0.20;99.90;;;;;;5012217;28;20168;-63
2021/12/21 05:09:41;;;;;;;11.10;5.93;;;-0.20;99.90;;;;;;5013568;28;20444;-63
2021/12/21 05:12:10;;;;;;;7.10;5.43;;;-0.30;99.90;;;;;;5017153;28;20393;-62
2021/12/21 05:14:36;;;;;;;7.63;5.70;;;-0.30;99.90;;;;;;5016931;28;20474;-63
2021/12/21 05:17:02;;;;;;;7.43;5.77;;;-0.30;99.90;;;;;;5017393;28;20411;-62
2021/12/21 05:19:28;;;;;;;7.33;5.90;;;-0.30;99.90;;;;;;5017730;28;20199;-63
2021/12/21 05:21:53;;;;;;;9.20;5.10;;;-0.30;99.90;;;;;;5016131;28;20420;-62
2021/12/21 05:24:19;;;;;;;6.80;5.63;;;-0.30;99.90;;;;;;5017113;28;20184;-62
2021/12/21 05:26:44;;;;;;;7.53;5.17;;;-0.30;99.90;;;;;;5017106;28;20197;-62
2021/12/21 05:29:10;;;;;;;6.93;5.23;;;-0.30;99.90;;;;;;5017093;28;20179;-62
2021/12/21 05:31:36;;;;;;;10.30;5.70;;;-0.30;99.90;;;;;;5017275;28;20231;-62
2021/12/21 05:34:02;;;;;;;8.33;6.77;;;-0.40;99.90;;;;;;5016914;28;20856;-62
2021/12/21 05:36:28;;;;;;;11.73;6.63;;;-0.30;99.90;;;;;;5015825;28;20435;-62
2021/12/21 05:38:59;;;;;;;7.10;5.70;;;-0.30;99.90;;;;;;5017134;28;20447;-62
2021/12/21 05:41:29;;;;;;;12.53;6.30;;;-0.30;99.90;;;;;;5017630;28;20153;-62
2021/12/21 05:43:55;;;;;;;7.37;6.17;;;-0.30;99.90;;;;;;5016595;28;20455;-61
2021/12/21 05:46:21;;;;;;;9.60;6.23;;;-0.40;99.90;;;;;;5017157;28;20403;-62
2021/12/21 05:48:51;;;;;;;14.07;6.23;;;-0.40;99.90;;;;;;5016828;28;20922;-63
2021/12/21 05:51:17;;;;;;;7.73;6.93;;;-0.40;99.90;;;;;;5016979;28;20392;-62
2021/12/21 05:53:43;;;;;;;7.00;5.60;;;-0.30;99.90;;;;;;5016760;28;20428;-62
2021/12/21 05:56:09;;;;;;;9.77;7.70;;;-0.30;99.90;;;;;;5016687;28;20502;-62
2021/12/21 05:58:34;;;;;;;7.50;6.17;;;-0.40;99.90;;;;;;5016402;28;20207;-62
2021/12/21 06:01:00;;;;;;;8.43;6.17;;;-0.40;99.90;;;;;;5016499;28;20253;-62
2021/12/21 06:03:26;;;;;;;8.47;5.90;;;-0.40;99.90;;;;;;5016410;28;20273;-63
2021/12/21 06:05:52;;;;;;;8.10;6.40;;;-0.50;99.90;;;;;;5016340;28;20451;-62
2021/12/21 06:08:21;;;;;;;8.30;6.80;;;-0.50;99.90;;;;;;5016318;28;20407;-62
2021/12/21 06:10:49;;;;;;;12.43;6.80;;;-0.40;99.90;;;;;;5011935;28;20179;-63
2021/12/21 06:24:34;;;;;;;6.60;5.60;;;-0.50;99.90;;;;;;4996867;28;20791;-62
2021/12/21 06:26:32;;;;;;;8.80;5.53;;;-0.60;99.90;;;;;;4996244;28;20420;-61
2021/12/21 06:28:58;;;;;;;8.60;5.77;;;-0.50;99.90;;;;;;5008561;28;20443;-60
2021/12/21 06:31:24;;;;;;;8.17;5.33;;;-0.60;99.90;;;;;;5015893;28;20255;-61
2021/12/21 06:33:50;;;;;;;6.53;5.33;;;-0.60;99.90;;;;;;5015749;28;20319;-60
2021/12/21 06:36:16;;;;;;;8.97;6.70;;;-0.60;99.90;;;;;;5016311;28;20411;-62
2021/12/21 06:38:42;;;;;;;5.63;5.03;;;-0.60;99.90;;;;;;5016075;28;20448;-59
2021/12/21 06:41:08;;;;;;;7.83;4.67;;;-0.60;99.90;;;;;;5015670;28;20413;-62
2021/12/21 06:43:34;;;;;;;6.53;5.10;;;-0.60;99.90;;;;;;5015613;28;20848;-63
2021/12/21 06:46:10;;;;;;;7.40;4.77;;;-0.60;99.90;;;;;;5015693;28;20415;-63
2021/12/21 06:53:54;;;;;;;9.30;5.50;;;-0.60;99.90;;;;;;5015517;28;20500;-63
2021/12/21 06:56:21;;;;;;;11.53;6.13;;;-0.50;99.90;;;;;;5015520;28;20452;-63
2021/12/21 06:58:47;;;;;;;7.83;6.33;;;-0.50;99.90;;;;;;5013707;28;20460;-62
2021/12/21 07:01:16;;;;;;;8.53;6.33;;;-0.50;99.90;;;;;;5015376;28;20507;-61
2021/12/21 07:03:43;;;;;;;8.77;7.00;;;-0.50;99.90;;;;;;5015499;28;20438;-61
2021/12/21 07:06:10;;;;;;;10.53;7.70;;;-0.50;99.90;;;;;;5012472;28;20751;-62
2021/12/21 07:09:43;;;;;;;7.97;6.50;;;-0.50;99.90;;;;;;4993765;28;20797;-62
2021/12/21 07:11:50;;;;;;;11.47;7.00;;;-0.50;99.90;;;;;;4974377;28;20417;-62
2021/12/21 07:19:45;;;;;;;10.37;8.60;;;-0.60;99.90;;;;;;4995362;28;20522;-63
2021/12/21 07:22:11;;;;;;;11.07;8.33;;;-0.50;99.90;;;;;;4995261;28;20924;-61
2021/12/21 07:24:37;;;;;;;12.77;7.63;;;-0.50;99.90;;;;;;4995132;28;20440;-62
2021/12/21 07:27:04;;;;;;;9.10;6.70;;;-0.60;99.90;;;;;;4995086;28;20498;-61
2021/12/21 07:29:29;;;;;;;8.40;6.40;;;-0.60;99.90;;;;;;5011958;28;20267;-60
2021/12/21 07:31:55;;;;;;;9.03;6.67;;;-0.60;99.90;;;;;;5015156;28;20490;-62
2021/12/21 07:34:21;;;;;;;11.27;5.87;;;-0.60;99.90;;;;;;5013946;28;20208;-62
2021/12/21 07:36:47;;;;;;;8.80;6.70;;;-0.60;99.90;;;;;;5013689;28;20432;-62
2021/12/21 07:39:17;;;;;;;8.83;6.53;;;-0.50;99.90;;;;;;5014470;28;20512;-61
2021/12/21 07:41:44;;;;;;;10.80;6.00;;;-0.50;99.90;;;;;;5014749;28;20187;-62
2021/12/21 07:44:10;;;;;;;10.50;6.10;;;-0.50;99.90;;;;;;5014194;28;20566;-62
2021/12/21 07:46:36;;;;;;;6.07;5.47;;;-0.40;99.90;;;;;;5014337;28;20466;-59
2021/12/21 07:49:02;;;;;;;7.90;6.03;;;-0.50;99.90;;;;;;5014369;28;20409;-62
2021/12/21 07:51:28;;;;;;;10.03;6.60;;;-0.50;99.90;;;;;;5014579;28;20264;-61
2021/12/21 07:53:54;;;;;;;6.70;5.83;;;-0.50;99.90;;;;;;5014141;28;20479;-63
2021/12/21 07:56:20;;;;;;;9.97;6.40;;;-0.40;99.90;;;;;;5014864;28;20525;-63
2021/12/21 07:58:47;;;;;;;7.00;6.20;;;-0.40;99.90;;;;;;5013919;28;20445;-63
2021/12/21 08:01:13;;;;;;;9.13;6.93;;;-0.50;99.90;;;;;;5014535;28;20564;-62
2021/12/21 08:03:39;;;;;;;14.40;7.80;;;-0.50;99.90;;;;;;5014158;28;20487;-63
2021/12/21 08:06:08;;;;;;;6.83;5.70;;;-0.40;99.90;;;;;;5014144;28;20411;-63
2021/12/21 08:08:38;;;;;;;9.60;6.73;;;-0.40;99.90;;;;;;5014257;28;20202;-59
2021/12/21 08:11:14;;;;;;;9.53;7.33;;;-0.40;99.90;;;;;;5014188;28;20479;-63
2021/12/21 08:13:42;;;;;;;8.50;6.10;;;-0.30;99.90;;;;;;4996126;28;20932;-61
2021/12/21 08:16:08;;;;;;;6.00;5.03;;;-0.40;99.90;;;;;;4994484;28;20441;-63
2021/12/21 08:18:34;;;;;;;11.27;7.00;;;-0.40;99.90;;;;;;4994417;28;20810;-63
2021/12/21 08:21:00;;;;;;;8.27;7.17;;;-0.30;99.90;;;;;;4994562;28;20424;-63
2021/12/21 08:23:26;;;;;;;9.37;6.50;;;-0.30;99.90;;;;;;4994333;28;20189;-60
2021/12/21 08:25:54;;;;;;;7.73;6.20;;;-0.30;99.90;;;;;;4993028;28;20895;-62
2021/12/21 08:28:20;;;;;;;8.40;6.57;;;-0.30;99.90;;;;;;4992958;28;20930;-60
2021/12/21 08:30:45;;;;;;;8.10;6.70;;;-0.30;99.90;;;;;;4994153;28;20466;-63
2021/12/21 08:33:11;;;;;;;8.10;6.30;;;-0.20;99.90;;;;;;4994487;28;20491;-62
2021/12/21 08:35:36;;;;;;;7.70;5.90;;;-0.20;99.90;;;;;;5008419;28;20263;-62
2021/12/21 08:38:07;;;;;;;7.20;6.07;;;-0.20;99.90;;;;;;5014070;28;20259;-62
2021/12/21 08:40:39;;;;;;;6.23;5.63;;;-0.10;99.90;;;;;;5014108;28;20231;-63
2021/12/21 08:43:13;;;;;;;9.10;6.67;;;-0.10;99.90;;;;;;5012370;28;20408;-61
2021/12/21 08:45:41;;;;;;;10.70;6.60;;;-0.20;99.90;;;;;;5013367;28;20393;-63
2021/12/21 08:48:08;;;;;;;7.00;6.30;;;-0.20;99.90;;;;;;5013810;28;20410;-63
2021/12/21 08:50:35;;;;;;;7.03;6.10;;;-0.10;99.90;;;;;;5014162;28;20894;-61
2021/12/21 08:53:02;;;;;;;6.97;5.50;;;-0.10;99.90;;;;;;4996638;28;20412;-63
2021/12/21 08:55:28;;;;;;;8.70;6.57;;;0.00;99.90;;;;;;4994483;28;20407;-61
2021/12/21 08:57:54;;;;;;;10.60;6.20;;;0.00;99.90;;;;;;4993661;28;20428;-62
2021/12/21 09:00:20;;;;;;;7.33;6.53;;;0.00;99.90;;;;;;4993554;28;20404;-63
2021/12/21 09:02:46;;;;;;;8.90;6.10;;;0.10;99.90;;;;;;4993868;28;20515;-62
2021/12/21 09:05:18;;;;;;;8.03;5.97;;;0.10;99.90;;;;;;5004959;28;20436;-62
2021/12/21 09:07:46;;;;;;;12.77;8.30;;;0.20;99.90;;;;;;5013517;28;20565;-63
2021/12/21 09:10:14;;;;;;;12.77;9.27;;;0.20;99.90;;;;;;5013513;28;20459;-64
2021/12/21 09:12:39;;;;;;;11.37;8.60;;;0.00;99.90;;;;;;5013628;28;20741;-62
2021/12/21 09:15:07;;;;;;;9.40;7.80;;;0.20;99.90;;;;;;5013005;28;20452;-63
2021/12/21 09:17:33;;;;;;;9.00;6.63;;;0.30;99.90;;;;;;5012228;28;20182;-63
2021/12/21 09:19:59;;;;;;;13.40;8.80;;;0.40;99.90;;;;;;5013534;28;20532;-59
2021/12/21 09:22:25;;;;;;;10.33;8.97;;;0.40;99.90;;;;;;5013481;28;20975;-62
2021/12/21 09:24:51;;;;;;;11.87;8.83;;;0.50;99.90;;;;;;5013274;28;20200;-62
2021/12/21 09:27:17;;;;;;;8.20;7.10;;;0.50;99.90;;;;;;5013185;28;20551;-62
2021/12/21 09:29:43;;;;;;;14.27;10.33;;;0.60;99.90;;;;;;5012837;28;20176;-61
2021/12/21 09:32:13;;;;;;;11.77;9.13;;;0.70;99.90;;;;;;5013647;28;20412;-63
2021/12/21 09:34:40;;;;;;;12.60;9.10;;;0.70;99.90;;;;;;5013187;28;20514;-62
2021/12/21 09:37:06;;;;;;;13.20;9.23;;;0.70;99.90;;;;;;5013334;28;20497;-63
2021/12/21 09:39:31;;;;;;;16.80;9.53;;;0.80;99.90;;;;;;5013402;28;20445;-63
2021/12/21 09:41:57;;;;;;;12.10;8.87;;;0.90;99.90;;;;;;5013312;28;20454;-63
2021/12/21 09:44:24;;;;;;;12.67;10.23;;;0.90;99.90;;;;;;5012933;28;20261;-63
2021/12/21 09:46:50;;;;;;;14.13;9.37;;;1.00;99.90;;;;;;5013171;28;20405;-62
2021/12/21 09:49:16;;;;;;;15.77;8.70;;;1.10;99.90;;;;;;5012267;28;20513;-63
2021/12/21 09:51:41;;;;;;;12.80;9.00;;;1.20;99.90;;;;;;5013582;28;20203;-62
2021/12/21 09:54:08;;;;;;;19.80;11.10;;;1.30;99.90;;;;;;5013709;28;20804;-63
2021/12/21 09:56:34;;;;;;;11.60;8.97;;;1.40;99.90;;;;;;5015188;28;20199;-61
2021/12/21 09:59:01;;;;;;;13.90;10.43;;;1.60;99.90;;;;;;5013002;28;20485;-62
2021/12/21 10:01:27;;;;;;;12.53;8.70;;;1.60;99.90;;;;;;4992618;28;20408;-62
2021/12/21 10:03:52;;;;;;;16.47;11.63;;;1.80;99.90;;;;;;4996440;28;20481;-62
2021/12/21 10:06:18;;;;;;;16.33;11.87;;;1.70;99.90;;;;;;5017209;28;20553;-64
2021/12/21 10:08:44;;;;;;;18.20;12.50;;;1.60;99.90;;;;;;5016739;28;20163;-63
2021/12/21 10:11:19;;;;;;;17.83;11.67;;;1.50;99.90;;;;;;5014158;28;20636;-64
2021/12/21 10:13:45;;;;;;;15.00;10.87;;;1.60;99.90;;;;;;5014410;23;20217;-59
2021/12/21 10:16:11;;;;;;;15.77;11.70;;;1.70;99.90;;;;;;5015406;28;20419;-59
2021/12/21 10:18:41;;;;;;;15.03;10.90;;;1.70;99.90;;;;;;5015973;28;20493;-61
2021/12/21 10:21:09;;;;;;;13.80;11.50;;;1.90;99.90;;;;;;5016220;28;20179;-60
2021/12/21 10:23:37;;;;;;;19.73;13.87;;;2.10;99.90;;;;;;5017019;28;20415;-60
2021/12/21 10:26:11;;;;;;;18.07;11.63;;;2.10;99.90;;;;;;5034620;28;20398;-60
2021/12/21 10:28:40;;;;;;;16.33;13.17;;;2.00;99.90;;;;;;5034910;28;20421;-60
2021/12/21 10:31:21;;;;;;;17.70;13.77;;;1.80;99.90;;;;;;5036031;28;20827;-60
2021/12/21 10:33:47;;;;;;;12.77;11.47;;;1.90;99.90;;;;;;5035723;28;20429;-61
2021/12/21 10:36:14;;;;;;;13.30;10.53;;;2.00;99.90;;;;;;5035017;28;20934;-60
2021/12/21 10:38:50;;;;;;;15.63;11.50;;;2.10;99.90;;;;;;5035322;28;20528;-60
2021/12/21 10:41:28;;;;;;;14.60;11.90;;;2.20;99.90;;;;;;5035576;28;20402;-61
2021/12/21 10:43:58;;;;;;;12.40;11.10;;;2.20;99.90;;;;;;5034933;28;20426;-61
2021/12/21 10:46:36;;;;;;;15.83;11.13;;;2.10;99.90;;;;;;5035145;28;20747;-61
2021/12/21 10:49:10;;;;;;;14.33;9.73;;;2.20;99.90;;;;;;5035274;28;20463;-61
2021/12/21 10:51:52;;;;;;;16.60;11.10;;;2.00;99.90;;;;;;5035196;28;20440;-62
2021/12/21 10:54:35;;;;;;;15.63;10.57;;;2.20;99.90;;;;;;5033959;28;20528;-61
2021/12/21 10:57:15;;;;;;;12.70;9.40;;;2.40;99.90;;;;;;5035435;28;20741;-61
2021/12/21 10:59:45;;;;;;;12.93;10.03;;;3.60;99.90;;;;;;5034631;28;20433;-60
2021/12/21 11:02:13;;;;;;;11.70;8.33;;;5.30;99.90;;;;;;5035232;28;20387;-61
2021/12/21 11:04:42;;;;;;;10.20;8.47;;;6.40;99.90;;;;;;5034790;28;20425;-61
2021/12/21 11:10:10;;;;;;;13.70;8.50;;;9.50;99.90;;;;;;5034789;28;20398;-61
2021/12/21 11:12:54;;;;;;;12.83;7.50;;;10.80;97.70;;;;;;5034979;28;20395;-62
2021/12/21 11:15:30;;;;;;;9.40;7.90;;;11.20;95.00;;;;;;5032923;28;20451;-60
2021/12/21 11:17:58;;;;;;;9.40;6.87;;;11.20;94.20;;;;;;5035074;28;20409;-60
2021/12/21 11:20:25;;;;;;;9.20;6.67;;;9.50;96.70;;;;;;5034837;28;20414;-60
2021/12/21 11:22:52;;;;;;;9.20;6.90;;;10.00;96.80;;;;;;5034704;28;20409;-60
2021/12/21 11:25:17;;;;;;;12.67;8.83;;;11.10;96.00;;;;;;5034662;28;20930;-60
2021/12/21 11:27:44;;;;;;;18.60;16.60;;;12.30;94.20;;;;;;5034602;28;20405;-60
2021/12/21 11:30:17;;;;;;;18.13;16.23;;;13.80;92.00;;;;;;5033933;28;20195;-61
2021/12/21 11:32:48;;;;;;;7.07;6.37;;;13.50;90.50;;;;;;5034552;28;20387;-61
2021/12/21 11:37:48;;;;;;;7.23;5.87;;;13.80;84.60;;;;;;5034214;28;20773;-62
2021/12/21 11:40:19;;;;;;;8.00;5.70;;;14.20;83.50;;;;;;5034394;28;20454;-62
2021/12/21 11:43:18;;;;;;;9.67;6.70;;;13.30;83.90;;;;;;5034876;28;20479;-59
2021/12/21 11:45:52;;;;;;;6.80;5.50;;;13.70;82.90;;;;;;5033898;28;20413;-61
2021/12/21 11:48:25;;;;;;;6.73;6.03;;;13.50;85.30;;;;;;5034921;28;20485;-61
2021/12/21 11:50:51;;;;;;;7.83;5.60;;;13.50;83.40;;;;;;5034764;28;20438;-61
2021/12/21 11:53:19;;;;;;;6.60;5.40;;;13.30;83.20;;;;;;5034332;28;20845;-61
2021/12/21 11:55:48;;;;;;;7.50;5.90;;;13.70;83.70;;;;;;5034029;28;20170;-59
2021/12/21 11:58:40;;;;;;;7.80;6.13;;;13.30;83.00;;;;;;5034672;28;20764;-59
2021/12/21 12:01:13;;;;;;;8.57;6.03;;;12.60;85.40;;;;;;5034274;28;20412;-61
2021/12/21 12:03:44;;;;;;;7.27;6.23;;;13.80;84.70;;;;;;5034126;28;20494;-61
2021/12/21 12:06:14;;;;;;;9.63;6.63;;;15.10;81.40;;;;;;5034045;28;20406;-61
2021/12/21 12:08:50;;;;;;;10.67;6.37;;;13.60;79.50;;;;;;5032780;28;20420;-61
2021/12/21 12:11:28;;;;;;;8.27;5.80;;;13.80;81.90;;;;;;5034187;28;20900;-61
2021/12/21 12:14:12;;;;;;;7.07;5.80;;;14.50;78.70;;;;;;5033212;28;20448;-60
2021/12/21 12:16:45;;;;;;;6.40;5.70;;;13.40;81.10;;;;;;5033497;28;20468;-60
2021/12/21 12:19:16;;;;;;;8.77;5.00;;;13.90;81.50;;;;;;5032618;28;20452;-61
2021/12/21 12:21:54;;;;;;;5.63;5.00;;;13.70;78.10;;;;;;5033581;28;20467;-61
2021/12/21 12:24:21;;;;;;;8.47;5.90;;;14.80;78.60;;;;;;5033823;28;20432;-62
2021/12/21 12:27:16;;;;;;;6.00;5.43;;;14.10;76.20;;;;;;5033741;28;20595;-61
2021/12/21 12:30:16;;;;;;;6.20;5.13;;;11.60;82.20;;;;;;5018196;28;20426;-59
2021/12/21 12:32:52;;;;;;;7.70;5.07;;;9.80;87.70;;;;;;5033294;28;20397;-61
2021/12/21 12:35:21;;;;;;;6.93;5.43;;;8.10;92.10;;;;;;5033121;28;20436;-61
2021/12/21 12:38:15;;;;;;;9.73;6.67;;;6.70;94.60;;;;;;5033593;28;20445;-60
2021/12/21 12:40:43;;;;;;;6.10;5.50;;;5.70;98.90;;;;;;5023462;28;20507;-60
2021/12/21 12:43:20;;;;;;;7.30;5.80;;;5.30;99.90;;;;;;5033480;28;20398;-60
2021/12/21 12:46:03;;;;;;;5.73;5.00;;;4.70;99.90;;;;;;5033146;28;20532;-60
2021/12/21 12:48:49;;;;;;;8.00;5.70;;;4.50;99.90;;;;;;5033354;28;20378;-60
2021/12/21 12:51:26;;;;;;;6.27;5.67;;;4.50;99.90;;;;;;5033472;28;20430;-58
2021/12/21 12:53:52;;;;;;;7.70;5.77;;;4.30;99.90;;;;;;5032180;28;20429;-60
2021/12/21 12:56:19;;;;;;;7.53;6.63;;;4.40;99.90;;;;;;5033131;28;20964;-60
2021/12/21 12:59:03;;;;;;;9.90;5.57;;;4.30;99.90;;;;;;5033258;28;20286;-61
2021/12/21 13:01:31;;;;;;;7.60;5.40;;;4.20;99.90;;;;;;5033336;28;20412;-60
2021/12/21 13:04:04;;;;;;;6.30;5.63;;;4.20;99.90;;;;;;5031878;28;20477;-61
2021/12/21 13:06:33;;;;;;;7.67;5.77;;;4.30;99.90;;;;;;5033069;28;20414;-61
2021/12/21 13:09:00;;;;;;;7.50;5.50;;;4.40;99.90;;;;;;5033319;28;20409;-59
2021/12/21 13:11:30;;;;;;;7.20;4.70;;;4.10;99.90;;;;;;5032943;28;20867;-61
2021/12/21 13:14:00;;;;;;;8.60;5.33;;;4.10;99.90;;;;;;5032820;28;20442;-59
2021/12/21 13:16:27;;;;;;;6.23;4.60;;;4.00;99.90;;;;;;5033206;28;20813;-57
2021/12/21 13:18:59;;;;;;;10.23;5.03;;;4.10;99.90;;;;;;5033185;28;20503;-61
2021/12/21 13:21:33;;;;;;;9.10;5.27;;;4.20;99.90;;;;;;5031225;28;20525;-59
2021/12/21 13:24:09;;;;;;;7.70;5.30;;;4.20;99.90;;;;;;5033074;28;20428;-61
2021/12/21 13:26:39;;;;;;;6.13;4.80;;;4.30;99.90;;;;;;5033097;28;20390;-61
2021/12/21 13:29:07;;;;;;;4.97;4.47;;;4.10;99.90;;;;;;5032483;28;20405;-59
2021/12/21 13:31:34;;;;;;;8.57;4.80;;;4.10;99.90;;;;;;5033831;28;20405;-60
2021/12/21 13:34:01;;;;;;;5.60;4.50;;;4.20;99.90;;;;;;5036906;28;20782;-59
2021/12/21 13:36:41;;;;;;;7.40;5.03;;;4.20;99.90;;;;;;5037101;28;20751;-61
2021/12/21 13:39:21;;;;;;;4.57;4.07;;;4.30;99.90;;;;;;5036943;28;20459;-61
2021/12/21 13:41:52;;;;;;;5.90;4.67;;;4.20;99.90;;;;;;5036977;28;20394;-60
2021/12/21 13:44:46;;;;;;;4.53;4.10;;;4.30;99.90;;;;;;5036376;28;20782;-61
2021/12/21 13:47:18;;;;;;;6.20;4.60;;;4.40;99.90;;;;;;5014273;28;20410;-61
2021/12/21 13:50:00;;;;;;;5.10;4.07;;;4.50;99.90;;;;;;5036494;28;20498;-61
2021/12/21 13:52:29;;;;;;;5.20;4.10;;;4.50;99.90;;;;;;5022466;28;20500;-60
2021/12/21 13:54:54;;;;;;;5.53;4.80;;;4.50;99.90;;;;;;5036376;28;20426;-60
2021/12/21 13:57:22;;;;;;;11.00;5.10;;;4.40;99.90;;;;;;5036257;28;20764;-60
2021/12/21 13:59:49;;;;;;;8.43;5.00;;;4.30;99.90;;;;;;5035134;28;20274;-60